Time;durP1;ratioP1;P1;durP2;ratioP2;P2;SDS_P1;SDS_P2;PMS_P1;PMS_P2;Temp;Humidity;BMP_temperature;BMP_pressure;BME280_temperature;BME280_humidity;BME280_pressure;Samples;Min_cycle;Max_cycle;Signal;HPM_P1;HPM_P2
2022/03/20 00:00:14;;;;;;;4.72;2.33;;;;;;;6.18;91.93;103436.53;5042355;28;20037;-68
2022/03/20 00:02:42;;;;;;;4.22;2.78;;;;;;;6.19;91.79;103437.34;5029680;28;20049;-68
2022/03/20 00:05:08;;;;;;;7.30;2.72;;;;;;;6.08;92.17;103428.41;5035777;28;20488;-68
2022/03/20 00:07:34;;;;;;;4.28;2.15;;;;;;;5.99;92.46;103424.63;5045848;28;20045;-69
2022/03/20 00:10:02;;;;;;;4.82;2.60;;;;;;;5.93;93.49;103430.97;5027128;28;20466;-68
2022/03/20 00:12:28;;;;;;;4.20;2.42;;;;;;;5.94;93.08;103421.09;5026782;28;20485;-68
2022/03/20 00:14:54;;;;;;;4.90;2.00;;;;;;;5.98;92.65;103424.88;5037728;28;20035;-68
2022/03/20 00:17:20;;;;;;;5.13;2.17;;;;;;;5.94;92.93;103418.44;5038958;28;20037;-68
2022/03/20 00:19:46;;;;;;;5.63;2.35;;;;;;;5.86;93.96;103409.00;5013572;28;20038;-68
2022/03/20 00:22:12;;;;;;;5.45;2.60;;;;;;;5.95;93.21;103409.31;5032291;28;20106;-69
2022/03/20 00:24:42;;;;;;;5.95;2.90;;;;;;;6.01;93.42;103405.63;5031992;28;20044;-68
2022/03/20 00:27:10;;;;;;;9.27;2.90;;;;;;;5.98;93.12;103404.25;5031558;28;20051;-68
2022/03/20 00:29:36;;;;;;;9.98;2.50;;;;;;;5.99;93.15;103411.25;5031265;28;20033;-68
2022/03/20 00:32:02;;;;;;;5.13;2.33;;;;;;;6.01;92.24;103403.78;5028472;28;20041;-68
2022/03/20 00:34:27;;;;;;;6.72;2.13;;;;;;;5.98;92.26;103395.47;5031103;28;20041;-68
2022/03/20 00:36:53;;;;;;;7.28;2.67;;;;;;;5.89;93.13;103392.44;5013277;28;20041;-68
2022/03/20 00:39:18;;;;;;;6.38;3.53;;;;;;;5.87;93.97;103393.75;5031247;28;20040;-68
2022/03/20 00:41:44;;;;;;;5.88;3.05;;;;;;;5.88;92.92;103382.00;5032366;28;20034;-68
2022/03/20 00:44:10;;;;;;;8.93;3.72;;;;;;;5.89;93.54;103378.25;5031501;28;20453;-68
2022/03/20 00:46:35;;;;;;;5.50;2.90;;;;;;;5.84;93.42;103376.38;5030242;28;20528;-68
2022/03/20 00:49:01;;;;;;;6.55;2.83;;;;;;;5.79;94.16;103372.81;5046223;28;20076;-69
2022/03/20 00:51:26;;;;;;;5.60;2.33;;;;;;;5.79;93.96;103370.16;4995687;28;20041;-68
2022/03/20 00:53:53;;;;;;;7.05;2.80;;;;;;;5.64;94.59;103373.47;5025500;28;20033;-67
2022/03/20 00:56:18;;;;;;;9.27;3.20;;;;;;;5.65;95.60;103360.94;5031120;28;20073;-69
2022/03/20 00:58:46;;;;;;;5.15;2.70;;;;;;;5.58;95.25;103366.47;5029866;28;20068;-68
2022/03/20 01:01:13;;;;;;;8.35;3.58;;;;;;;5.70;95.46;103363.63;5029620;28;20069;-68
2022/03/20 01:03:38;;;;;;;7.45;3.42;;;;;;;5.64;94.93;103357.44;5025624;28;20064;-70
2022/03/20 01:06:05;;;;;;;8.68;3.28;;;;;;;5.70;94.54;103363.63;5032458;28;20061;-69
2022/03/20 01:08:30;;;;;;;5.63;2.80;;;;;;;5.74;94.87;103364.75;5030709;28;20041;-68
2022/03/20 01:10:56;;;;;;;11.10;3.58;;;;;;;5.60;94.74;103356.34;5004820;28;20022;-68
2022/03/20 01:13:23;;;;;;;4.38;2.28;;;;;;;5.56;94.76;103357.91;5026413;28;20045;-67
2022/03/20 01:15:49;;;;;;;5.72;2.97;;;;;;;5.51;95.52;103349.84;5027568;28;20505;-68
2022/03/20 01:18:15;;;;;;;5.72;2.70;;;;;;;5.57;94.85;103354.19;5027592;28;20076;-68
2022/03/20 01:20:40;;;;;;;8.00;3.35;;;;;;;5.64;95.05;103348.59;5031052;28;20095;-68
2022/03/20 01:23:05;;;;;;;4.78;2.97;;;;;;;5.68;94.52;103350.53;5031105;28;20072;-68
2022/03/20 01:25:31;;;;;;;5.15;2.88;;;;;;;5.67;94.73;103351.56;5030688;28;20490;-68
2022/03/20 01:27:56;;;;;;;6.88;2.95;;;;;;;5.83;93.42;103344.47;5017962;28;20068;-68
2022/03/20 01:30:22;;;;;;;6.35;2.85;;;;;;;5.72;93.70;103340.94;5030966;28;20033;-68
2022/03/20 01:32:48;;;;;;;10.20;3.40;;;;;;;5.68;93.08;103344.38;5027596;28;20037;-68
2022/03/20 01:35:13;;;;;;;7.68;3.42;;;;;;;5.63;93.83;103339.00;5030887;28;20133;-68
2022/03/20 01:37:41;;;;;;;6.93;2.78;;;;;;;5.61;93.90;103333.91;5030232;28;20509;-68
2022/03/20 01:40:08;;;;;;;8.40;3.42;;;;;;;5.63;93.57;103330.97;5029380;28;20039;-68
2022/03/20 01:42:33;;;;;;;5.45;2.70;;;;;;;5.58;93.50;103329.06;4999813;28;20121;-68
2022/03/20 01:44:59;;;;;;;8.48;3.28;;;;;;;5.60;93.48;103329.59;5012857;28;20076;-68
2022/03/20 01:47:24;;;;;;;11.63;4.20;;;;;;;5.65;93.57;103328.84;5012429;28;20033;-68
2022/03/20 01:49:50;;;;;;;10.38;3.08;;;;;;;5.59;93.41;103309.31;5022425;28;20041;-68
2022/03/20 01:52:24;;;;;;;12.23;4.50;;;;;;;5.57;93.30;103326.66;5030359;28;20034;-68
2022/03/20 01:54:49;;;;;;;8.75;3.70;;;;;;;5.48;93.65;103318.28;5030218;28;20053;-68
2022/03/20 01:57:17;;;;;;;8.00;3.63;;;;;;;5.52;93.35;103305.25;5028541;28;20136;-68
2022/03/20 01:59:43;;;;;;;12.70;3.80;;;;;;;5.55;93.09;103307.38;5030221;28;20049;-68
2022/03/20 02:02:10;;;;;;;11.77;3.40;;;;;;;5.41;93.54;103302.47;5026435;28;20061;-69
2022/03/20 02:04:36;;;;;;;12.43;3.17;;;;;;;5.39;93.07;103293.91;5027520;28;20040;-68
2022/03/20 02:07:02;;;;;;;9.98;3.70;;;;;;;5.34;93.72;103280.50;5029482;28;20037;-68
2022/03/20 02:09:28;;;;;;;6.30;3.13;;;;;;;5.36;93.05;103288.28;5030297;28;20465;-68
2022/03/20 02:11:55;;;;;;;8.68;3.28;;;;;;;5.33;93.26;103284.22;5027247;28;20029;-68
2022/03/20 02:14:21;;;;;;;5.82;3.42;;;;;;;5.39;93.16;103293.91;5030117;28;20037;-68
2022/03/20 02:16:47;;;;;;;5.55;2.95;;;;;;;5.32;93.08;103289.84;5023227;28;20041;-68
2022/03/20 02:19:16;;;;;;;7.32;3.75;;;;;;;5.32;93.38;103279.16;5030498;28;20033;-68
2022/03/20 02:21:43;;;;;;;7.93;3.45;;;;;;;5.38;93.07;103281.59;5030757;28;20155;-68
2022/03/20 02:24:30;;;;;;;6.40;3.08;;;;;;;5.44;92.46;103277.09;5029039;28;20102;-68
2022/03/20 02:27:17;;;;;;;7.53;3.15;;;;;;;5.28;92.68;103281.50;5029167;28;20069;-68
2022/03/20 02:29:47;;;;;;;6.20;2.85;;;;;;;5.31;92.26;103264.97;5015536;28;20485;-68
2022/03/20 02:32:15;;;;;;;4.65;2.90;;;;;;;5.31;92.07;103259.63;5027140;28;20064;-68
2022/03/20 02:34:41;;;;;;;10.60;3.97;;;;;;;5.30;93.10;103257.22;5029410;28;20628;-68
2022/03/20 02:37:08;;;;;;;8.52;3.58;;;;;;;5.26;92.75;103266.81;5029580;28;20033;-68
2022/03/20 02:39:34;;;;;;;9.30;3.67;;;;;;;5.25;93.14;103260.66;5026896;28;20110;-68
2022/03/20 02:42:02;;;;;;;6.35;3.65;;;;;;;5.31;92.71;103256.16;5029844;28;20409;-68
2022/03/20 02:44:52;;;;;;;9.73;3.47;;;;;;;5.20;92.88;103257.13;5029597;28;20075;-68
2022/03/20 02:47:22;;;;;;;7.70;3.38;;;;;;;5.27;92.67;103252.38;5027255;28;20037;-69
2022/03/20 02:49:57;;;;;;;11.80;4.53;;;;;;;5.22;92.83;103250.50;5028421;28;20516;-68
2022/03/20 02:52:29;;;;;;;10.35;4.65;;;;;;;5.26;91.92;103251.59;5030291;28;20041;-68
2022/03/20 02:55:00;;;;;;;;;;;;;;;5.28;92.32;103238.75;5012307;28;20345;-68
2022/03/20 02:57:30;;;;;;;2.65;2.25;;;;;;;5.24;92.30;103237.69;5027703;28;19917;-68
2022/03/20 03:00:00;;;;;;;9.65;4.07;;;;;;;5.17;91.93;103234.41;5025097;28;20030;-68
2022/03/20 03:02:30;;;;;;;19.25;4.40;;;;;;;5.13;92.16;103235.19;5021761;28;20037;-68
2022/03/20 03:04:57;;;;;;;8.25;3.28;;;;;;;5.05;92.56;103240.97;5029911;28;20454;-67
2022/03/20 03:07:23;;;;;;;8.35;3.83;;;;;;;5.04;92.70;103228.69;5041573;28;20452;-68
2022/03/20 03:12:32;;;;;;;6.75;3.47;;;;;;;5.05;91.77;103227.63;5026880;28;20030;-68
2022/03/20 03:17:41;;;;;;;9.45;3.55;;;;;;;4.95;91.71;103219.53;5028494;28;20033;-69
2022/03/20 03:20:07;;;;;;;5.50;3.05;;;;;;;4.95;91.93;103235.53;5023548;28;20029;-68
2022/03/20 03:22:33;;;;;;;10.02;3.97;;;;;;;4.95;91.30;103224.88;5028805;28;20068;-68
2022/03/20 03:24:58;;;;;;;10.15;3.65;;;;;;;4.89;91.49;103221.34;5028730;28;20064;-67
2022/03/20 03:27:24;;;;;;;7.75;3.70;;;;;;;5.06;90.75;103224.69;5029007;28;20116;-68
2022/03/20 03:29:50;;;;;;;10.65;3.42;;;;;;;4.98;90.63;103219.81;5028826;28;20029;-68
2022/03/20 03:32:15;;;;;;;7.72;3.53;;;;;;;4.93;90.36;103214.44;5021444;28;20037;-68
2022/03/20 03:37:25;;;;;;;8.88;3.47;;;;;;;4.84;90.63;103221.28;5027614;28;20037;-69
2022/03/20 03:39:51;;;;;;;6.70;3.13;;;;;;;4.91;90.37;103210.41;5032863;28;20052;-68
2022/03/20 03:42:16;;;;;;;7.53;3.10;;;;;;;4.83;90.30;103214.34;5015787;28;20034;-68
2022/03/20 03:44:42;;;;;;;12.88;4.00;;;;;;;4.89;89.80;103213.34;5030956;28;20029;-68
2022/03/20 03:47:08;;;;;;;13.43;4.15;;;;;;;4.81;89.67;103202.31;5014827;28;20041;-68
2022/03/20 03:49:33;;;;;;;11.18;4.55;;;;;;;4.84;89.87;103199.94;5033250;28;20033;-69
2022/03/20 03:52:01;;;;;;;12.48;4.43;;;;;;;4.76;89.76;103205.75;5029791;28;20029;-68
2022/03/20 03:54:26;;;;;;;8.77;3.78;;;;;;;4.78;89.00;103195.59;5031401;28;20033;-68
2022/03/20 03:56:52;;;;;;;11.68;3.83;;;;;;;4.83;88.61;103190.31;5028002;28;20767;-68
2022/03/20 03:59:17;;;;;;;7.07;3.65;;;;;;;4.66;89.01;103189.63;5031895;28;20116;-68
2022/03/20 04:01:43;;;;;;;6.80;3.40;;;;;;;4.58;89.46;103196.22;5025380;28;20124;-69
2022/03/20 04:04:09;;;;;;;9.30;4.25;;;;;;;4.61;89.18;103181.56;5033596;28;20155;-68
2022/03/20 04:06:34;;;;;;;12.15;3.53;;;;;;;4.62;89.36;103185.84;5047238;28;20047;-69
2022/03/20 04:09:00;;;;;;;9.60;4.45;;;;;;;4.72;88.89;103177.13;5035103;28;20819;-68
2022/03/20 04:11:26;;;;;;;12.43;4.35;;;;;;;4.68;88.58;103168.84;5010712;28;20398;-68
2022/03/20 04:13:52;;;;;;;6.35;3.45;;;;;;;4.63;88.26;103176.78;5029441;28;20108;-68
2022/03/20 04:16:18;;;;;;;11.60;4.03;;;;;;;4.57;88.37;103175.13;5032439;28;20132;-68
2022/03/20 04:18:44;;;;;;;8.88;3.90;;;;;;;4.66;88.00;103178.16;5030193;28;20037;-69
2022/03/20 04:21:10;;;;;;;4.90;3.60;;;;;;;4.61;88.39;103170.88;5031561;28;20129;-68
2022/03/20 04:23:45;;;;;;;7.40;3.30;;;;;;;4.60;88.40;103158.63;5013820;28;20025;-67
2022/03/20 04:26:17;;;;;;;8.30;3.72;;;;;;;4.58;88.15;103163.41;5032712;28;20034;-68
2022/03/20 04:28:44;;;;;;;9.13;3.40;;;;;;;4.45;88.11;103161.94;5028219;28;20168;-68
2022/03/20 04:31:15;;;;;;;14.32;4.90;;;;;;;4.45;88.30;103163.81;5032008;28;20021;-68
2022/03/20 04:33:42;;;;;;;9.65;3.22;;;;;;;4.49;87.63;103164.91;5003761;28;20045;-68
2022/03/20 04:36:09;;;;;;;10.80;4.68;;;;;;;4.51;87.25;103158.25;5034721;28;20041;-68
2022/03/20 04:38:35;;;;;;;8.82;3.75;;;;;;;4.53;87.32;103164.16;5039768;28;20048;-68
2022/03/20 04:41:01;;;;;;;11.85;3.63;;;;;;;4.41;87.59;103166.16;5031679;28;20069;-68
2022/03/20 04:43:27;;;;;;;7.15;3.65;;;;;;;4.54;87.08;103171.09;5032177;28;20071;-68
2022/03/20 04:45:53;;;;;;;9.30;3.20;;;;;;;4.56;86.58;103162.84;5013649;28;20038;-68
2022/03/20 04:59:14;;;;;;;7.63;3.05;;;;;;;4.27;86.87;103153.47;5031477;28;20037;-68
2022/03/20 05:01:39;;;;;;;10.52;4.20;;;;;;;4.24;87.17;103151.31;5027243;28;20044;-69
2022/03/20 05:04:05;;;;;;;8.98;3.70;;;;;;;4.30;87.04;103144.97;5031378;28;20051;-68
2022/03/20 05:06:31;;;;;;;9.77;3.42;;;;;;;4.26;86.99;103144.66;5031182;28;20037;-68
2022/03/20 05:13:19;;;;;;;9.25;4.30;;;;;;;4.24;87.06;103143.31;5031016;28;20047;-68
2022/03/20 05:14:25;;;;;;;9.18;2.95;;;;;;;4.33;86.14;103152.47;5023364;28;20409;-68
2022/03/20 05:16:52;;;;;;;10.10;3.70;;;;;;;4.31;85.71;103133.25;5027731;28;20043;-68
2022/03/20 05:19:19;;;;;;;8.77;3.92;;;;;;;4.28;85.47;103145.22;5028370;28;20104;-68
2022/03/20 05:21:46;;;;;;;9.35;3.83;;;;;;;4.19;85.92;103141.41;5025543;28;20040;-68
2022/03/20 05:24:13;;;;;;;8.32;3.75;;;;;;;4.16;86.27;103139.22;5015840;28;20046;-68
2022/03/20 05:26:41;;;;;;;14.23;5.13;;;;;;;4.18;85.59;103146.97;5025795;28;20378;-69
2022/03/20 05:29:07;;;;;;;8.95;3.67;;;;;;;4.22;85.22;103135.56;5029012;28;20118;-68
2022/03/20 05:31:32;;;;;;;4.32;2.67;;;;;;;4.21;85.73;103143.81;4997449;28;20858;-68
2022/03/20 05:33:59;;;;;;;8.93;4.07;;;;;;;4.11;84.99;103141.03;5011389;28;20044;-68
2022/03/20 05:36:29;;;;;;;6.20;3.10;;;;;;;4.09;84.43;103141.28;5023739;28;20072;-68
2022/03/20 05:38:58;;;;;;;10.75;4.57;;;;;;;4.01;84.58;103141.72;5022636;28;20115;-69
2022/03/20 05:44:11;;;;;;;9.27;3.25;;;;;;;4.01;84.38;103128.38;5021747;28;20037;-68
2022/03/20 05:46:40;;;;;;;9.05;3.65;;;;;;;4.03;83.93;103136.13;5026566;28;20037;-69
2022/03/20 05:49:06;;;;;;;7.35;3.33;;;;;;;4.07;83.50;103138.06;5029427;28;20068;-69
2022/03/20 05:51:34;;;;;;;12.63;4.35;;;;;;;4.09;83.24;103133.28;5004185;28;20034;-68
2022/03/20 05:53:59;;;;;;;7.00;3.35;;;;;;;4.05;82.97;103134.00;5031009;28;20171;-69
2022/03/20 05:59:08;;;;;;;9.02;3.13;;;;;;;4.16;82.28;103146.44;5023617;28;20044;-68
2022/03/20 06:01:34;;;;;;;8.90;3.75;;;;;;;4.25;81.57;103139.59;5025606;28;20041;-71
2022/03/20 06:04:00;;;;;;;5.38;3.13;;;;;;;4.27;81.24;103140.97;5000203;28;20104;-69
2022/03/20 06:06:26;;;;;;;9.15;3.72;;;;;;;4.27;80.52;103132.13;5010533;28;20037;-70
2022/03/20 06:08:52;;;;;;;8.85;3.95;;;;;;;4.21;79.48;103125.94;5010462;28;20099;-69
2022/03/20 06:11:17;;;;;;;12.32;4.63;;;;;;;4.24;79.61;103130.78;5020080;28;20039;-70
2022/03/20 06:13:45;;;;;;;6.78;3.78;;;;;;;4.36;78.85;103125.28;5017679;28;20026;-69
2022/03/20 06:16:12;;;;;;;6.15;3.40;;;;;;;4.35;79.70;103129.84;5023601;28;20096;-69
2022/03/20 06:18:42;;;;;;;8.23;4.05;;;;;;;4.45;79.29;103131.81;5005424;28;20037;-69
2022/03/20 06:21:11;;;;;;;7.00;3.40;;;;;;;4.53;78.22;103126.00;5023345;28;20037;-69
2022/03/20 06:23:37;;;;;;;10.18;3.53;;;;;;;4.59;76.97;103132.97;5010454;28;20276;-68
2022/03/20 06:26:04;;;;;;;9.40;4.10;;;;;;;4.51;77.31;103130.78;5026642;28;20141;-69
2022/03/20 06:28:29;;;;;;;6.78;3.28;;;;;;;4.53;77.73;103134.81;5014038;28;20033;-69
2022/03/20 06:30:55;;;;;;;8.30;3.65;;;;;;;4.53;76.19;103128.66;5018749;28;20390;-69
2022/03/20 06:33:20;;;;;;;12.10;3.58;;;;;;;4.59;75.94;103109.78;5013569;28;20034;-67
2022/03/20 06:35:46;;;;;;;9.45;3.67;;;;;;;4.50;75.72;103126.50;5007488;28;20069;-68
2022/03/20 06:38:12;;;;;;;9.43;3.67;;;;;;;4.61;74.92;103122.88;5023172;28;20056;-68
2022/03/20 06:40:37;;;;;;;8.18;3.25;;;;;;;4.61;74.88;103109.53;5028298;28;20034;-68
2022/03/20 06:43:03;;;;;;;9.10;4.25;;;;;;;4.80;74.39;103120.66;5016900;28;20421;-68
2022/03/20 06:45:28;;;;;;;9.32;3.70;;;;;;;4.88;73.13;103120.19;5016696;28;20079;-69
2022/03/20 06:47:54;;;;;;;9.10;3.33;;;;;;;4.89;73.19;103114.56;5017217;28;20472;-68
2022/03/20 06:50:19;;;;;;;4.85;2.58;;;;;;;4.96;72.22;103117.00;5014296;28;20042;-69
2022/03/20 06:52:45;;;;;;;8.85;4.10;;;;;;;4.93;71.55;103128.22;4993700;28;20021;-69
2022/03/20 06:55:14;;;;;;;15.20;3.72;;;;;;;5.02;70.53;103119.47;5027681;28;20474;-68
2022/03/20 06:57:43;;;;;;;8.70;4.07;;;;;;;5.08;69.88;103129.13;5011156;28;20037;-69
2022/03/20 07:00:10;;;;;;;10.93;3.60;;;;;;;5.27;70.50;103133.00;5030795;28;20464;-68
2022/03/20 07:02:44;;;;;;;11.00;3.97;;;;;;;5.40;69.22;103132.53;5021654;28;20521;-70
2022/03/20 07:05:10;;;;;;;5.13;3.35;;;;;;;5.52;68.09;103135.00;5027156;28;20033;-68
2022/03/20 07:07:36;;;;;;;10.40;4.07;;;;;;;5.70;66.02;103134.56;5040617;28;20049;-70
2022/03/20 07:10:02;;;;;;;8.85;4.18;;;;;;;5.69;66.19;103124.94;5044240;28;20037;-68
2022/03/20 07:12:28;;;;;;;13.75;4.45;;;;;;;5.97;64.76;103129.09;5033637;28;20048;-70
2022/03/20 07:14:55;;;;;;;11.35;4.72;;;;;;;5.98;64.54;103109.31;5033444;28;20038;-68
2022/03/20 07:17:20;;;;;;;10.10;3.58;;;;;;;6.04;65.16;103116.31;5033064;28;20033;-69
2022/03/20 07:19:46;;;;;;;8.63;3.67;;;;;;;6.21;63.43;103115.00;5032662;28;20051;-68
2022/03/20 07:22:13;;;;;;;7.75;3.78;;;;;;;6.24;62.66;103113.66;5032613;28;20287;-68
2022/03/20 07:24:41;;;;;;;10.50;4.45;;;;;;;6.27;62.44;103123.84;5032906;28;20040;-68
2022/03/20 07:29:51;;;;;;;8.95;3.78;;;;;;;6.51;59.93;103102.72;5029904;28;20060;-68
2022/03/20 07:32:17;;;;;;;7.30;3.22;;;;;;;6.75;58.33;103110.00;5032646;28;20490;-69
2022/03/20 07:34:46;;;;;;;7.82;3.67;;;;;;;6.91;57.30;103092.81;5033135;28;20036;-68
2022/03/20 07:37:16;;;;;;;7.63;3.75;;;;;;;7.03;58.23;103097.91;5032256;28;20037;-68
2022/03/20 07:39:47;;;;;;;13.20;4.10;;;;;;;7.13;56.73;103100.56;5032846;28;20057;-68
2022/03/20 07:42:14;;;;;;;6.80;3.78;;;;;;;7.29;54.66;103102.97;5032725;28;20040;-68
2022/03/20 07:44:42;;;;;;;11.35;4.05;;;;;;;7.53;54.93;103099.69;5033102;28;20489;-68
2022/03/20 07:47:08;;;;;;;7.85;3.38;;;;;;;7.83;52.54;103086.94;5032104;28;20130;-68
2022/03/20 07:49:38;;;;;;;12.60;4.55;;;;;;;7.64;51.78;103096.69;5015134;28;20415;-68
2022/03/20 07:52:05;;;;;;;8.73;4.63;;;;;;;7.77;52.76;103087.22;5031566;28;20120;-69
2022/03/20 07:54:31;;;;;;;8.00;4.03;;;;;;;8.16;52.36;103080.03;5032743;28;20048;-68
2022/03/20 07:56:56;;;;;;;13.43;4.25;;;;;;;8.31;51.45;103085.34;5028842;28;20033;-68
2022/03/20 07:59:22;;;;;;;8.88;4.13;;;;;;;8.37;49.53;103083.41;5032114;28;20064;-68
2022/03/20 08:01:48;;;;;;;10.32;4.53;;;;;;;8.56;49.97;103085.16;5031416;28;20057;-68
2022/03/20 08:04:13;;;;;;;15.35;4.45;;;;;;;8.66;49.73;103079.72;5027404;28;20025;-69
2022/03/20 08:06:39;;;;;;;9.20;3.60;;;;;;;8.78;48.38;103073.97;5041136;28;20098;-69
2022/03/20 08:09:04;;;;;;;12.65;4.38;;;;;;;8.85;48.11;103085.16;5052258;28;20036;-69
2022/03/20 08:11:30;;;;;;;10.68;4.55;;;;;;;9.00;47.67;103079.69;5049817;28;20036;-69
2022/03/20 08:13:57;;;;;;;8.98;4.32;;;;;;;8.99;47.81;103081.56;5033955;28;20060;-69
2022/03/20 08:16:26;;;;;;;11.45;4.80;;;;;;;9.31;47.69;103089.00;5052028;28;20118;-69
2022/03/20 08:18:52;;;;;;;7.90;4.38;;;;;;;9.41;46.68;103066.56;5051280;28;20063;-68
2022/03/20 08:21:17;;;;;;;13.75;5.30;;;;;;;9.56;45.45;103069.88;5051085;28;20037;-71
2022/03/20 08:23:43;;;;;;;11.50;4.43;;;;;;;9.45;45.54;103072.97;5031552;28;20037;-68
2022/03/20 08:26:09;;;;;;;10.75;4.43;;;;;;;9.52;46.99;103074.25;5014672;28;20099;-69
2022/03/20 08:28:37;;;;;;;9.15;4.43;;;;;;;9.73;45.99;103083.69;5012483;28;20040;-70
2022/03/20 08:31:03;;;;;;;14.82;4.85;;;;;;;9.83;45.38;103064.69;5018659;28;20025;-70
2022/03/20 08:33:28;;;;;;;11.73;4.97;;;;;;;9.86;46.22;103068.69;5010244;28;20040;-69
2022/03/20 08:35:54;;;;;;;9.98;4.35;;;;;;;9.92;45.34;103065.66;5014042;28;20033;-68
2022/03/20 08:38:19;;;;;;;11.48;4.72;;;;;;;10.08;45.92;103071.63;5015789;28;20467;-68
2022/03/20 08:40:45;;;;;;;13.38;4.78;;;;;;;10.23;44.84;103068.75;5028892;28;20041;-68
2022/03/20 08:43:15;;;;;;;9.10;4.55;;;;;;;10.17;44.48;103059.13;5030520;28;20048;-69
2022/03/20 08:45:43;;;;;;;10.02;4.35;;;;;;;10.29;43.99;103062.19;4997949;28;20030;-70
2022/03/20 08:48:09;;;;;;;8.82;4.32;;;;;;;10.45;44.77;103063.53;5031430;28;20026;-68
2022/03/20 08:50:34;;;;;;;10.70;4.97;;;;;;;10.55;44.46;103060.66;5030347;28;20088;-67
2022/03/20 08:53:01;;;;;;;10.82;4.60;;;;;;;10.74;43.67;103057.94;5031980;28;20036;-68
2022/03/20 08:55:27;;;;;;;10.45;4.82;;;;;;;10.86;43.92;103045.56;5031679;28;20036;-68
2022/03/20 08:57:54;;;;;;;10.35;4.65;;;;;;;10.82;43.60;103043.75;5018823;28;20498;-69
2022/03/20 09:00:22;;;;;;;11.25;4.78;;;;;;;10.97;43.89;103042.69;5011520;28;20037;-69
2022/03/20 09:02:49;;;;;;;14.82;4.63;;;;;;;11.10;43.35;103045.41;5010866;28;20045;-68
2022/03/20 09:05:16;;;;;;;8.50;3.92;;;;;;;11.06;43.46;103044.41;5009661;28;20021;-68
2022/03/20 09:07:47;;;;;;;10.55;5.22;;;;;;;11.32;42.18;103044.72;5007833;28;20498;-69
2022/03/20 09:10:14;;;;;;;;;;;;;;;11.24;42.21;103035.44;5012116;28;20033;-69
2022/03/20 09:12:40;;;;;;;11.13;4.05;;;;;;;11.30;42.55;103030.72;5010370;28;20390;-68
2022/03/20 09:15:09;;;;;;;12.07;5.10;;;;;;;11.29;42.82;103023.72;5015424;28;20033;-68
2022/03/20 09:20:20;;;;;;;11.27;4.60;;;;;;;11.56;41.96;103024.50;5010881;28;20105;-68
2022/03/20 09:22:45;;;;;;;10.80;4.90;;;;;;;11.68;42.71;103021.31;5011593;28;20579;-69
2022/03/20 09:25:10;;;;;;;9.95;5.20;;;;;;;11.86;42.33;103006.88;5009265;28;20026;-69
2022/03/20 09:27:36;;;;;;;12.80;4.95;;;;;;;11.99;41.71;103008.72;5009892;28;20478;-69
2022/03/20 09:30:03;;;;;;;12.75;4.40;;;;;;;12.10;41.19;103007.38;5017801;28;20037;-68
2022/03/20 09:32:29;;;;;;;11.75;5.30;;;;;;;11.97;40.81;102992.03;5012629;28;20029;-69
2022/03/20 09:34:54;;;;;;;11.32;4.95;;;;;;;11.96;41.91;103003.13;5010125;28;20398;-69
2022/03/20 09:37:20;;;;;;;13.70;4.40;;;;;;;12.29;40.95;103007.97;5008187;28;20075;-69
2022/03/20 09:39:45;;;;;;;10.65;4.68;;;;;;;12.51;41.02;102996.34;5031234;28;20486;-69
2022/03/20 09:42:11;;;;;;;12.25;5.13;;;;;;;12.66;40.79;103004.06;5031064;28;20037;-69
2022/03/20 09:44:39;;;;;;;10.80;4.85;;;;;;;12.81;41.29;102992.88;5029524;28;20529;-70
2022/03/20 09:47:10;;;;;;;10.20;5.03;;;;;;;13.08;40.67;103003.50;5030279;28;20290;-68
2022/03/20 09:49:36;;;;;;;12.73;4.65;;;;;;;13.17;41.43;102984.56;5025542;28;20033;-67
2022/03/20 09:52:03;;;;;;;16.08;5.85;;;;;;;13.19;39.43;102995.88;5021958;28;20482;-68
2022/03/20 09:54:28;;;;;;;10.95;4.68;;;;;;;12.98;39.88;102981.31;5020003;28;20067;-68
2022/03/20 09:56:54;;;;;;;11.30;4.80;;;;;;;13.04;40.21;102985.50;5011912;28;20041;-70
2022/03/20 09:59:19;;;;;;;12.85;5.50;;;;;;;12.95;40.10;102984.66;5013103;28;20160;-69
2022/03/20 10:01:45;;;;;;;11.15;5.38;;;;;;;12.94;39.98;102981.13;5024336;28;20037;-67
2022/03/20 10:04:12;;;;;;;12.75;5.55;;;;;;;12.81;40.43;102971.22;5025407;28;20033;-69
2022/03/20 10:06:40;;;;;;;12.88;4.53;;;;;;;13.04;39.86;102966.56;5022321;28;20049;-68
2022/03/20 10:09:13;;;;;;;12.73;4.82;;;;;;;13.14;39.67;102966.28;5005680;28;20095;-69
2022/03/20 10:11:51;;;;;;;11.32;5.07;;;;;;;13.09;40.12;102961.00;5027987;28;20033;-68
2022/03/20 10:14:26;;;;;;;10.30;5.03;;;;;;;13.11;40.19;102956.06;5030437;28;20037;-69
2022/03/20 10:17:01;;;;;;;11.88;5.07;;;;;;;13.32;40.59;102948.94;5028389;28;20111;-68
2022/03/20 10:19:28;;;;;;;11.52;5.18;;;;;;;13.49;39.96;102954.41;5010722;28;20033;-68
2022/03/20 10:22:00;;;;;;;17.33;5.80;;;;;;;13.53;39.56;102944.50;5011046;28;20051;-69
2022/03/20 10:24:28;;;;;;;12.77;5.30;;;;;;;13.67;39.75;102961.41;5005376;28;20057;-68
2022/03/20 10:26:59;;;;;;;15.27;5.38;;;;;;;13.77;38.74;102939.41;4992634;28;20029;-70
2022/03/20 10:29:26;;;;;;;13.13;4.78;;;;;;;13.82;38.84;102941.94;5010028;28;20072;-67
2022/03/20 10:31:55;;;;;;;15.93;5.88;;;;;;;13.73;38.86;102932.25;5008104;28;20065;-70
2022/03/20 10:34:23;;;;;;;11.57;5.20;;;;;;;13.65;38.78;102941.97;5011436;28;20033;-70
2022/03/20 10:36:50;;;;;;;11.80;5.80;;;;;;;13.66;39.16;102921.91;5011686;28;20639;-69
2022/03/20 10:39:19;;;;;;;12.20;5.28;;;;;;;13.51;39.02;102920.47;5008735;28;20033;-70
2022/03/20 10:41:46;;;;;;;11.10;5.00;;;;;;;13.67;38.61;102920.78;5008961;28;20038;-69
2022/03/20 10:44:18;;;;;;;11.68;5.28;;;;;;;13.63;39.58;102919.06;4992530;28;20034;-69
2022/03/20 10:46:56;;;;;;;12.00;4.90;;;;;;;13.80;38.73;102921.75;5021499;28;20036;-69
2022/03/20 10:49:21;;;;;;;11.70;5.28;;;;;;;13.85;38.91;102916.94;5020882;28;20030;-68
2022/03/20 10:52:01;;;;;;;11.25;4.88;;;;;;;14.07;39.25;102921.38;5012819;28;20030;-67
2022/03/20 10:54:42;;;;;;;13.48;5.35;;;;;;;14.06;38.56;102911.66;5015376;28;20030;-67
2022/03/20 10:57:10;;;;;;;14.07;5.80;;;;;;;14.03;38.74;102902.25;5026130;28;20072;-67
2022/03/20 10:59:36;;;;;;;12.07;4.90;;;;;;;14.13;38.10;102903.84;5014713;28;20042;-68
2022/03/20 11:02:05;;;;;;;9.48;4.72;;;;;;;14.16;38.34;102917.53;5012802;28;20049;-69
2022/03/20 11:04:32;;;;;;;13.70;5.30;;;;;;;14.34;37.65;102908.25;5020138;28;20535;-68
2022/03/20 11:06:59;;;;;;;8.65;4.50;;;;;;;14.14;37.95;102900.00;5011387;28;20046;-69
2022/03/20 11:09:26;;;;;;;11.55;5.20;;;;;;;14.10;37.93;102883.59;5016296;28;20083;-67
2022/03/20 11:11:58;;;;;;;12.18;5.25;;;;;;;14.06;38.79;102887.25;5009771;28;20036;-67
2022/03/20 11:14:26;;;;;;;12.60;5.07;;;;;;;14.15;38.49;102882.63;5013409;28;20391;-67
2022/03/20 11:16:59;;;;;;;12.90;5.00;;;;;;;14.19;37.94;102883.53;5013541;28;20077;-68
2022/03/20 11:19:29;;;;;;;12.13;4.90;;;;;;;14.25;37.29;102879.53;5011310;28;20565;-67
2022/03/20 11:22:05;;;;;;;10.25;5.18;;;;;;;14.54;37.59;102881.56;5014239;28;20109;-68
2022/03/20 11:24:32;;;;;;;13.98;5.60;;;;;;;14.42;36.84;102872.19;5032396;28;20430;-68
2022/03/20 11:27:02;;;;;;;10.77;4.55;;;;;;;14.18;37.26;102863.81;5029058;28;20072;-67
2022/03/20 11:29:31;;;;;;;12.25;5.05;;;;;;;14.23;37.66;102870.94;5025457;28;20048;-69
2022/03/20 11:32:00;;;;;;;12.75;5.03;;;;;;;14.27;37.81;102853.75;5029468;28;20026;-67
2022/03/20 11:34:27;;;;;;;12.35;5.68;;;;;;;14.38;37.29;102857.69;5016286;28;20120;-67
2022/03/20 11:37:10;;;;;;;11.55;5.18;;;;;;;14.43;37.15;102854.00;5020793;28;20303;-70
2022/03/20 11:39:59;;;;;;;9.48;5.20;;;;;;;14.61;36.56;102857.41;5004785;28;20037;-68
2022/03/20 11:42:28;;;;;;;12.38;4.97;;;;;;;14.67;36.72;102853.41;5018462;28;20390;-70
2022/03/20 11:45:20;;;;;;;12.38;5.45;;;;;;;14.71;35.58;102838.84;5013613;28;20485;-69
2022/03/20 11:48:12;;;;;;;15.32;5.65;;;;;;;14.70;35.90;102842.69;5017550;28;20041;-69
2022/03/20 11:50:43;;;;;;;11.52;4.95;;;;;;;14.70;37.19;102826.41;5009358;28;20054;-68
2022/03/20 11:53:10;;;;;;;11.70;5.55;;;;;;;14.91;36.17;102861.69;4993250;28;20041;-68
2022/03/20 11:55:55;;;;;;;8.40;4.80;;;;;;;14.93;34.77;102845.88;5007828;28;20033;-68
2022/03/20 11:58:21;;;;;;;10.63;5.45;;;;;;;14.98;35.29;102843.75;5017846;28;20025;-68
2022/03/20 12:01:02;;;;;;;13.15;4.53;;;;;;;15.08;34.98;102829.00;5012602;28;20856;-69